Time;durP1;ratioP1;P1;durP2;ratioP2;P2;SDS_P1;SDS_P2;PMS_P1;PMS_P2;Temp;Humidity;BMP_temperature;BMP_pressure;BME280_temperature;BME280_humidity;BME280_pressure;Samples;Min_cycle;Max_cycle;Signal;HPM_P1;HPM_P2
2021/03/27 00:02:03;;;;;;;9.57;8.63;;;;;;;7.45;67.23;97921.50;5017461;28;20662;-72
2021/03/27 00:04:37;;;;;;;10.67;9.67;;;;;;;7.43;67.66;97931.38;5017319;28;20204;-71
2021/03/27 00:07:17;;;;;;;8.97;8.00;;;;;;;7.37;67.61;97922.22;5016834;28;20224;-72
2021/03/27 00:09:46;;;;;;;9.23;7.87;;;;;;;7.32;67.32;97921.81;5021938;28;20210;-70
2021/03/27 00:12:26;;;;;;;9.20;8.30;;;;;;;7.35;67.95;97924.16;5019325;28;20236;-73
2021/03/27 00:14:57;;;;;;;9.77;8.73;;;;;;;7.30;67.81;97918.50;5023451;28;20206;-73
2021/03/27 00:17:32;;;;;;;9.67;8.80;;;;;;;7.42;67.87;97927.06;5023178;28;21029;-70
2021/03/27 00:20:03;;;;;;;10.30;9.20;;;;;;;7.37;67.94;97922.22;5017437;28;20451;-71
2021/03/27 00:22:33;;;;;;;9.90;8.90;;;;;;;7.29;68.30;97914.22;5014298;28;20231;-73
2021/03/27 00:25:07;;;;;;;10.57;8.87;;;;;;;7.24;68.62;97913.81;5020260;28;20673;-72
2021/03/27 00:27:38;;;;;;;9.67;8.67;;;;;;;7.24;68.70;97912.00;5016092;28;20204;-71
2021/03/27 00:30:08;;;;;;;9.63;8.73;;;;;;;7.31;67.58;97906.16;5015951;28;20215;-71
2021/03/27 00:32:40;;;;;;;10.33;9.30;;;;;;;7.25;68.28;97912.84;5017960;28;20228;-71
2021/03/27 00:35:10;;;;;;;12.67;8.67;;;;;;;7.31;67.74;97919.31;5022424;28;20754;-71
2021/03/27 00:37:39;;;;;;;10.90;8.60;;;;;;;7.36;68.29;97923.19;5021895;28;20223;-70
2021/03/27 00:40:08;;;;;;;9.33;8.53;;;;;;;7.29;68.61;97929.19;5021688;28;20216;-72
2021/03/27 00:42:38;;;;;;;9.80;8.87;;;;;;;7.23;69.24;97922.69;5020307;28;20715;-70
2021/03/27 00:45:10;;;;;;;10.47;9.47;;;;;;;7.29;68.94;97916.00;5022461;28;20205;-69
2021/03/27 00:47:49;;;;;;;10.40;9.50;;;;;;;7.29;68.58;97900.19;5015590;28;20284;-71
2021/03/27 00:50:24;;;;;;;10.10;9.00;;;;;;;7.21;69.28;97895.66;5017938;28;20583;-71
2021/03/27 00:52:53;;;;;;;9.10;8.17;;;;;;;7.21;68.82;97907.03;5019380;28;20224;-73
2021/03/27 00:55:23;;;;;;;9.03;8.17;;;;;;;7.29;68.53;97910.72;5021250;28;20588;-73
2021/03/27 00:57:55;;;;;;;16.93;8.50;;;;;;;7.20;69.19;97912.44;5021443;28;20228;-71
2021/03/27 01:00:39;;;;;;;9.47;8.50;;;;;;;7.21;68.96;97916.75;5018081;28;20215;-72
2021/03/27 01:03:09;;;;;;;9.30;8.40;;;;;;;7.16;69.29;97911.06;5021697;28;20231;-73
2021/03/27 01:05:37;;;;;;;9.23;8.30;;;;;;;7.21;69.53;97914.13;5016713;28;20728;-72
2021/03/27 01:08:06;;;;;;;8.63;7.73;;;;;;;7.19;69.71;97908.13;5021210;28;20204;-71
2021/03/27 01:10:36;;;;;;;10.30;9.00;;;;;;;7.32;69.21;97906.00;5020201;28;20193;-72
2021/03/27 01:13:06;;;;;;;10.77;8.03;;;;;;;7.32;69.14;97913.06;5017936;28;20235;-72
2021/03/27 01:15:42;;;;;;;9.20;8.37;;;;;;;7.32;69.32;97913.91;5020278;28;20588;-72
2021/03/27 01:18:17;;;;;;;8.90;8.10;;;;;;;7.32;69.43;97908.66;5018420;28;20297;-71
2021/03/27 01:20:48;;;;;;;8.67;7.33;;;;;;;7.35;69.60;97908.34;5019300;28;20214;-71
2021/03/27 01:23:15;;;;;;;9.73;7.93;;;;;;;7.42;68.94;97899.84;5020281;28;20220;-73
2021/03/27 01:25:42;;;;;;;8.00;7.13;;;;;;;7.35;69.13;97903.09;5018683;28;20208;-71
2021/03/27 01:28:22;;;;;;;7.47;6.77;;;;;;;7.50;68.69;97906.06;5017252;28;20212;-71
2021/03/27 01:30:56;;;;;;;8.50;7.60;;;;;;;7.59;68.22;97908.78;5023297;28;20301;-72
2021/03/27 01:33:28;;;;;;;10.37;6.73;;;;;;;7.72;67.88;97900.53;5019494;28;20227;-71
2021/03/27 01:36:07;;;;;;;8.20;7.40;;;;;;;7.75;67.92;97908.16;5021304;28;20200;-69
2021/03/27 01:38:39;;;;;;;8.17;7.20;;;;;;;7.75;68.21;97905.50;5018202;28;20684;-71
2021/03/27 01:41:13;;;;;;;7.40;6.60;;;;;;;7.76;67.94;97905.34;5019549;28;20212;-70
2021/03/27 01:43:50;;;;;;;7.70;7.00;;;;;;;7.76;68.34;97902.72;5019689;28;20200;-72
2021/03/27 01:46:34;;;;;;;7.03;6.33;;;;;;;7.78;67.92;97910.50;5017371;28;20192;-71
2021/03/27 01:49:26;;;;;;;7.03;6.40;;;;;;;7.79;68.19;97906.88;5018716;28;20216;-68
2021/03/27 01:52:01;;;;;;;7.20;6.50;;;;;;;7.85;67.56;97905.47;5017859;28;20644;-71
2021/03/27 01:54:33;;;;;;;7.00;6.37;;;;;;;7.87;67.83;97904.31;5021459;28;20635;-71
2021/03/27 01:57:14;;;;;;;6.07;5.53;;;;;;;7.95;66.94;97907.06;5019323;28;20204;-71
2021/03/27 01:59:46;;;;;;;6.50;5.67;;;;;;;7.97;67.19;97905.09;5018079;28;20207;-71
2021/03/27 02:02:17;;;;;;;6.67;6.07;;;;;;;8.07;66.47;97910.28;5018497;28;20231;-71
2021/03/27 02:04:49;;;;;;;7.13;6.43;;;;;;;8.22;65.34;97912.44;5019781;28;20231;-73
2021/03/27 02:07:20;;;;;;;8.00;7.20;;;;;;;8.26;65.34;97916.41;5019271;28;20207;-73
2021/03/27 02:09:54;;;;;;;6.83;6.33;;;;;;;8.33;65.06;97913.97;5022043;28;20204;-73
2021/03/27 02:12:30;;;;;;;7.37;6.60;;;;;;;8.39;64.52;97910.75;5019067;28;20337;-72
2021/03/27 02:15:01;;;;;;;7.90;7.10;;;;;;;8.33;65.27;97901.63;5019175;28;20201;-72
2021/03/27 02:17:31;;;;;;;7.07;6.37;;;;;;;8.39;65.20;97892.28;5018934;28;20200;-71
2021/03/27 02:20:21;;;;;;;7.83;7.17;;;;;;;8.43;64.49;97887.50;5017842;28;20204;-72
2021/03/27 02:22:58;;;;;;;7.40;6.70;;;;;;;8.53;63.96;97875.09;5019371;28;20252;-73
2021/03/27 02:25:55;;;;;;;6.43;5.83;;;;;;;8.64;63.34;97869.53;5019176;28;20623;-71
2021/03/27 02:28:33;;;;;;;7.33;6.63;;;;;;;8.89;63.14;97864.41;4998423;28;20686;-73
2021/03/27 02:31:07;;;;;;;9.03;7.30;;;;;;;8.96;63.05;97873.38;5020669;28;20204;-72
2021/03/27 02:33:37;;;;;;;7.97;7.27;;;;;;;9.24;62.19;97888.22;5017797;28;20224;-70
2021/03/27 02:36:16;;;;;;;6.40;5.80;;;;;;;9.36;61.67;97902.00;5018700;28;20346;-72
2021/03/27 02:38:54;;;;;;;6.50;5.90;;;;;;;9.51;61.50;97897.75;5019645;28;20755;-70
2021/03/27 02:41:31;;;;;;;6.60;6.10;;;;;;;9.53;62.02;97892.31;5019270;28;20244;-72
2021/03/27 02:44:03;;;;;;;6.83;6.33;;;;;;;9.64;61.40;97896.47;5018325;28;20204;-71
2021/03/27 02:46:35;;;;;;;6.47;5.77;;;;;;;9.65;61.48;97891.03;5017288;28;20203;-71
2021/03/27 02:49:34;;;;;;;7.80;5.77;;;;;;;9.65;62.32;97879.59;5019861;28;20204;-72
2021/03/27 02:52:09;;;;;;;6.00;5.50;;;;;;;9.76;62.05;97889.06;5014999;28;20242;-72
2021/03/27 02:54:46;;;;;;;6.93;5.70;;;;;;;9.65;62.87;97884.88;5021034;28;20204;-71
2021/03/27 02:57:18;;;;;;;6.23;5.73;;;;;;;9.66;62.58;97874.16;5017671;28;20204;-72
2021/03/27 02:59:51;;;;;;;6.40;5.43;;;;;;;9.78;63.06;97874.69;5017961;28;20208;-72
2021/03/27 03:02:22;;;;;;;5.70;5.00;;;;;;;9.76;63.33;97874.03;5015574;28;20225;-72
2021/03/27 03:04:59;;;;;;;5.43;4.93;;;;;;;9.62;64.43;97870.19;5018967;28;20525;-72
2021/03/27 03:07:31;;;;;;;6.17;5.67;;;;;;;9.53;64.55;97884.38;5018057;28;20214;-72
2021/03/27 03:10:06;;;;;;;6.37;5.37;;;;;;;9.54;64.87;97881.56;5019813;28;20253;-72
2021/03/27 03:12:37;;;;;;;9.13;6.03;;;;;;;9.50;64.96;97890.81;5016819;28;20834;-71
2021/03/27 03:15:18;;;;;;;7.17;6.27;;;;;;;9.60;64.88;97889.84;5018110;28;20578;-72
2021/03/27 03:17:50;;;;;;;5.97;5.47;;;;;;;9.59;65.22;97889.03;5016694;28;20208;-72
2021/03/27 03:20:22;;;;;;;6.13;5.53;;;;;;;9.58;66.40;97884.72;5019797;28;20849;-71
2021/03/27 03:22:56;;;;;;;4.97;4.53;;;;;;;9.58;66.14;97887.38;5019510;28;20224;-72
2021/03/27 03:25:25;;;;;;;5.73;5.20;;;;;;;9.64;65.98;97884.06;5010531;28;20287;-72
2021/03/27 03:28:03;;;;;;;5.27;4.77;;;;;;;9.55;67.09;97880.56;5019693;28;20437;-72
2021/03/27 03:30:35;;;;;;;5.37;4.87;;;;;;;9.63;66.48;97885.06;5017550;28;20584;-71
2021/03/27 03:33:48;;;;;;;5.13;4.73;;;;;;;9.62;67.20;97887.84;5017013;28;20242;-72
2021/03/27 03:36:18;;;;;;;5.63;5.20;;;;;;;9.75;66.88;97896.19;4959513;28;20212;-73
2021/03/27 03:39:01;;;;;;;6.00;5.20;;;;;;;9.62;68.00;97890.50;5015726;28;20200;-71
2021/03/27 03:41:43;;;;;;;6.10;5.60;;;;;;;9.66;67.78;97894.47;5019088;28;20219;-72
2021/03/27 03:44:12;;;;;;;4.90;4.50;;;;;;;9.68;68.11;97901.28;5024253;28;20212;-72
2021/03/27 03:46:48;;;;;;;5.03;4.53;;;;;;;9.68;67.39;97903.13;5023728;28;20212;-73
2021/03/27 03:49:31;;;;;;;6.10;5.70;;;;;;;9.65;68.66;97914.00;5024476;28;20200;-73
2021/03/27 03:52:12;;;;;;;4.63;4.33;;;;;;;9.73;68.05;97905.25;5021756;28;20232;-72
2021/03/27 03:54:49;;;;;;;4.30;4.00;;;;;;;9.71;68.27;97905.44;5023601;28;20239;-71
2021/03/27 03:57:28;;;;;;;5.20;4.43;;;;;;;9.84;68.15;97912.91;5022665;28;20204;-72
2021/03/27 03:59:57;;;;;;;4.20;3.90;;;;;;;9.93;67.24;97922.53;5021017;28;20196;-69
2021/03/27 04:02:28;;;;;;;4.80;4.40;;;;;;;9.88;67.92;97922.19;5023536;28;20275;-72
2021/03/27 04:04:59;;;;;;;9.17;4.67;;;;;;;9.95;68.09;97914.41;5021083;28;20680;-69
2021/03/27 04:07:30;;;;;;;4.23;3.90;;;;;;;9.96;68.50;97927.50;5020581;28;20204;-71
2021/03/27 04:10:00;;;;;;;4.53;4.17;;;;;;;9.88;69.02;97926.66;5023674;28;20201;-72
2021/03/27 04:12:33;;;;;;;5.17;4.77;;;;;;;9.79;70.23;97947.81;5024281;28;20224;-72
2021/03/27 04:15:24;;;;;;;4.40;3.97;;;;;;;9.78;69.85;97938.22;5020837;28;20219;-70
2021/03/27 04:18:05;;;;;;;4.17;3.77;;;;;;;9.85;70.36;97941.06;5022140;28;20735;-72
2021/03/27 04:20:47;;;;;;;4.37;4.07;;;;;;;9.84;70.89;97971.97;5021492;28;20513;-71
2021/03/27 04:23:20;;;;;;;4.57;4.27;;;;;;;9.75;71.78;97967.63;5023129;28;20232;-72
2021/03/27 04:25:55;;;;;;;4.17;3.80;;;;;;;9.68;72.71;97966.63;5023608;28;20206;-72
2021/03/27 04:28:48;;;;;;;4.60;4.20;;;;;;;9.57;74.33;97959.78;5020007;28;20208;-71
2021/03/27 04:31:18;;;;;;;4.30;4.00;;;;;;;9.35;76.94;97948.75;5021700;28;20205;-70
2021/03/27 04:33:49;;;;;;;4.47;4.07;;;;;;;9.34;77.50;97939.16;5022781;28;20964;-71
2021/03/27 04:36:20;;;;;;;4.57;4.13;;;;;;;9.25;78.09;97938.28;5020397;28;20212;-71
2021/03/27 04:38:50;;;;;;;3.93;3.70;;;;;;;9.16;79.69;97943.72;5023429;28;20204;-71
2021/03/27 04:41:28;;;;;;;4.13;3.73;;;;;;;9.16;80.43;97944.53;5021085;28;20216;-72
2021/03/27 04:44:00;;;;;;;4.10;3.70;;;;;;;9.15;81.03;97949.97;5021683;28;20452;-72
2021/03/27 04:46:33;;;;;;;3.80;3.50;;;;;;;9.14;81.16;97958.91;5022276;28;20652;-71
2021/03/27 04:49:10;;;;;;;3.87;3.67;;;;;;;9.08;81.61;97958.50;5022541;28;20893;-72
2021/03/27 04:51:51;;;;;;;4.40;4.10;;;;;;;9.02;83.18;97960.97;5021279;28;20622;-72
2021/03/27 04:54:31;;;;;;;3.73;3.43;;;;;;;8.94;83.50;97982.88;5022963;28;20231;-70
2021/03/27 04:57:07;;;;;;;4.33;4.03;;;;;;;9.03;83.95;97992.50;5021696;28;20418;-71
2021/03/27 04:59:49;;;;;;;4.23;3.93;;;;;;;8.85;84.97;98004.94;5019817;28;20658;-71
2021/03/27 05:02:17;;;;;;;3.70;3.50;;;;;;;8.90;85.22;98015.88;5019670;28;20719;-71
2021/03/27 05:04:57;;;;;;;4.03;3.73;;;;;;;8.81;85.25;98033.47;5021992;28;20782;-71
2021/03/27 05:07:29;;;;;;;5.17;3.77;;;;;;;8.74;85.80;98049.13;5021803;28;20205;-68
2021/03/27 05:10:06;;;;;;;4.30;3.90;;;;;;;8.65;89.73;98050.00;5021591;28;20580;-69
2021/03/27 05:13:03;;;;;;;4.50;4.20;;;;;;;8.37;92.22;98073.81;5020032;28;20263;-72
2021/03/27 05:15:36;;;;;;;4.50;3.83;;;;;;;8.16;95.66;98089.91;5015915;28;20212;-72
2021/03/27 05:18:42;;;;;;;4.13;3.90;;;;;;;7.98;96.65;98082.72;5020910;28;20208;-70
2021/03/27 05:21:44;;;;;;;4.50;4.10;;;;;;;7.95;99.31;98094.44;5020928;28;20227;-71
2021/03/27 05:24:24;;;;;;;4.50;4.20;;;;;;;7.86;100.00;98108.47;5017501;28;20573;-71
2021/03/27 05:27:00;;;;;;;5.10;4.60;;;;;;;7.77;100.00;98109.34;5022106;28;20196;-71
2021/03/27 05:29:42;;;;;;;4.43;4.13;;;;;;;7.85;100.00;98122.63;5017275;28;20208;-68
2021/03/27 05:32:23;;;;;;;4.60;4.13;;;;;;;7.92;100.00;98118.44;5014942;28;20231;-68
2021/03/27 05:34:51;;;;;;;4.83;4.40;;;;;;;7.77;100.00;98114.59;5012526;28;20668;-68
2021/03/27 05:37:31;;;;;;;5.13;4.73;;;;;;;7.75;100.00;98130.56;5020582;28;20315;-69
2021/03/27 05:40:17;;;;;;;4.67;4.37;;;;;;;7.71;100.00;98116.00;5020294;28;20691;-68
2021/03/27 05:43:04;;;;;;;4.10;3.80;;;;;;;7.61;100.00;98120.47;5019957;28;20224;-67
2021/03/27 05:45:54;;;;;;;3.50;3.30;;;;;;;7.72;98.76;98106.28;5018018;28;20200;-73
2021/03/27 05:49:01;;;;;;;3.47;3.27;;;;;;;7.52;99.39;98116.88;5022095;28;20231;-72
2021/03/27 05:52:06;;;;;;;3.50;3.30;;;;;;;7.47;99.14;98127.00;5019253;28;20244;-72
2021/03/27 05:55:12;;;;;;;3.30;3.10;;;;;;;7.46;99.40;98146.44;5017253;28;20216;-71
2021/03/27 05:57:56;;;;;;;3.00;2.80;;;;;;;7.50;98.93;98156.59;5016279;28;20208;-71
2021/03/27 06:00:36;;;;;;;3.40;3.00;;;;;;;7.44;98.19;98172.97;5017869;28;20201;-71
2021/03/27 06:03:32;;;;;;;3.00;2.80;;;;;;;7.57;95.45;98177.13;5018552;28;20228;-70
2021/03/27 06:06:41;;;;;;;2.93;2.83;;;;;;;7.62;93.48;98196.84;5020737;28;20904;-70
2021/03/27 06:09:46;;;;;;;2.53;2.43;;;;;;;7.64;90.79;98194.03;5013658;28;20223;-72
2021/03/27 06:12:38;;;;;;;2.47;2.37;;;;;;;7.63;89.13;98209.06;5016462;28;20600;-72
2021/03/27 06:15:32;;;;;;;2.07;1.93;;;;;;;7.65;87.58;98208.91;5017534;28;20212;-71
2021/03/27 06:18:38;;;;;;;2.20;2.10;;;;;;;7.64;86.96;98225.69;5009349;28;20211;-72
2021/03/27 06:21:10;;;;;;;2.77;2.60;;;;;;;7.59;86.33;98220.00;5018912;28;20645;-71
2021/03/27 06:23:51;;;;;;;2.70;2.50;;;;;;;7.59;86.04;98217.38;5015433;28;20712;-71
2021/03/27 06:26:58;;;;;;;2.13;2.00;;;;;;;7.57;86.31;98224.59;5018432;28;20219;-71
2021/03/27 06:29:57;;;;;;;2.33;2.10;;;;;;;7.53;83.32;98229.28;5014545;28;20204;-70
2021/03/27 06:33:00;;;;;;;2.87;2.67;;;;;;;7.61;85.07;98228.63;5018961;28;20236;-67
2021/03/27 06:35:39;;;;;;;2.17;2.07;;;;;;;7.62;84.18;98238.19;5016926;28;20775;-70
2021/03/27 06:38:48;;;;;;;2.57;2.37;;;;;;;7.71;83.15;98233.91;5016010;28;20216;-70
2021/03/27 06:41:39;;;;;;;4.17;3.87;;;;;;;7.65;83.53;98237.91;4976467;28;20231;-69
2021/03/27 06:44:14;;;;;;;6.60;6.00;;;;;;;7.67;81.53;98263.19;5018664;28;20196;-70
2021/03/27 06:47:07;;;;;;;4.93;4.57;;;;;;;7.61;77.31;98245.28;5018445;28;20233;-71
2021/03/27 06:49:43;;;;;;;2.70;2.60;;;;;;;7.58;73.05;98276.38;5010676;28;20688;-67
2021/03/27 06:52:40;;;;;;;4.83;4.63;;;;;;;7.48;72.19;98294.81;5019111;28;20251;-67
2021/03/27 06:55:23;;;;;;;3.40;3.20;;;;;;;7.50;73.64;98282.31;5012187;28;20775;-66
2021/03/27 06:58:22;;;;;;;5.53;5.10;;;;;;;7.36;72.03;98286.19;5018925;28;21108;-67
2021/03/27 07:00:58;;;;;;;1.77;1.70;;;;;;;7.37;72.37;98287.84;4994089;28;20204;-66
2021/03/27 07:04:03;;;;;;;1.80;1.70;;;;;;;7.39;72.50;98297.31;5012821;28;20207;-67
2021/03/27 07:06:44;;;;;;;1.90;1.80;;;;;;;7.31;72.25;98304.22;5016919;28;20482;-66
2021/03/27 07:09:58;;;;;;;2.10;2.00;;;;;;;7.21;73.20;98304.22;5013131;28;20271;-67
2021/03/27 07:12:33;;;;;;;2.00;1.90;;;;;;;7.10;73.14;98347.31;5018578;28;20231;-67
2021/03/27 07:15:16;;;;;;;1.70;1.60;;;;;;;7.13;73.63;98333.88;5020310;28;20219;-66
2021/03/27 07:17:57;;;;;;;1.50;1.50;;;;;;;6.90;73.89;98357.75;5015942;28;20200;-64
2021/03/27 07:21:07;;;;;;;1.43;1.33;;;;;;;6.85;74.24;98357.31;5021248;28;20306;-67
2021/03/27 07:24:02;;;;;;;1.90;1.80;;;;;;;6.74;74.74;98363.50;5018536;28;20200;-69
2021/03/27 07:27:18;;;;;;;1.53;1.43;;;;;;;6.73;74.73;98375.00;4998157;28;20771;-70
2021/03/27 07:30:17;;;;;;;1.70;1.60;;;;;;;6.69;74.56;98407.84;5019125;28;20398;-70
2021/03/27 07:33:14;;;;;;;3.17;2.87;;;;;;;6.55;74.47;98397.63;5017629;28;20236;-70
2021/03/27 07:36:13;;;;;;;3.40;3.20;;;;;;;6.55;73.94;98395.00;5019098;28;20485;-70
2021/03/27 07:38:45;;;;;;;1.40;1.40;;;;;;;6.59;73.16;98393.78;5018113;28;20731;-69
2021/03/27 07:41:40;;;;;;;2.23;2.13;;;;;;;6.51;73.10;98433.91;5017806;28;20215;-70
2021/03/27 07:44:43;;;;;;;3.93;3.57;;;;;;;6.49;73.28;98451.63;5011815;28;20227;-69
2021/03/27 07:47:21;;;;;;;1.33;1.27;;;;;;;6.28;69.58;98447.19;5014825;28;20865;-70
2021/03/27 07:50:05;;;;;;;2.03;1.93;;;;;;;6.36;67.74;98446.53;5013177;28;20799;-71
2021/03/27 07:52:40;;;;;;;1.67;1.57;;;;;;;6.62;67.78;98449.66;5016734;28;20602;-70
2021/03/27 07:55:36;;;;;;;4.73;4.33;;;;;;;6.87;66.75;98475.78;5016260;28;20208;-71
2021/03/27 07:58:22;;;;;;;2.57;2.37;;;;;;;6.96;63.08;98459.19;5018352;28;20216;-71
2021/03/27 08:00:56;;;;;;;17.40;10.90;;;;;;;7.16;61.16;98475.09;5019997;28;20216;-70
2021/03/27 08:03:41;;;;;;;17.10;10.17;;;;;;;6.99;59.47;98511.63;5019174;28;20226;-71
2021/03/27 08:06:28;;;;;;;3.20;2.93;;;;;;;6.94;57.50;98487.47;5018059;28;20208;-70
2021/03/27 08:09:14;;;;;;;3.47;3.27;;;;;;;6.88;58.57;98522.22;5019192;28;20208;-67
2021/03/27 08:12:13;;;;;;;0.80;0.80;;;;;;;6.85;58.69;98499.59;5017866;28;20224;-71
2021/03/27 08:15:05;;;;;;;1.33;1.33;;;;;;;7.14;59.38;98506.00;5017889;28;20236;-71
2021/03/27 08:17:37;;;;;;;1.80;1.27;;;;;;;7.36;59.35;98494.47;5010263;28;20250;-70
2021/03/27 08:20:39;;;;;;;2.40;1.30;;;;;;;7.60;59.00;98493.34;5014800;28;20212;-69
2021/03/27 08:23:27;;;;;;;1.13;1.03;;;;;;;7.38;57.86;98506.56;5010158;28;20219;-70
2021/03/27 08:26:19;;;;;;;1.60;1.50;;;;;;;7.06;57.99;98519.84;5019147;28;20804;-71
2021/03/27 08:29:28;;;;;;;1.07;1.07;;;;;;;7.06;56.83;98520.69;5012526;28;20456;-71
2021/03/27 08:32:21;;;;;;;0.97;0.97;;;;;;;7.14;57.01;98520.03;4974314;28;20842;-68
2021/03/27 08:35:28;;;;;;;1.20;1.10;;;;;;;7.25;56.51;98521.78;5001982;28;20235;-71
2021/03/27 08:38:34;;;;;;;0.83;0.80;;;;;;;7.32;54.93;98538.75;5020907;28;20206;-68
2021/03/27 08:41:32;;;;;;;0.83;0.83;;;;;;;7.61;55.47;98530.16;5009455;28;20702;-70
2021/03/27 08:44:42;;;;;;;1.00;0.90;;;;;;;7.69;53.39;98561.13;5018665;28;20208;-71
2021/03/27 08:47:36;;;;;;;3.10;1.13;;;;;;;7.83;54.07;98546.75;5023717;28;20207;-70
2021/03/27 08:50:25;;;;;;;0.93;0.90;;;;;;;7.43;54.62;98548.38;5019912;28;20219;-71
2021/03/27 08:53:17;;;;;;;2.27;1.03;;;;;;;7.27;55.85;98562.03;5019838;28;20236;-70
2021/03/27 08:55:59;;;;;;;0.80;0.80;;;;;;;7.30;56.44;98566.19;5022122;28;20315;-70
2021/03/27 08:58:44;;;;;;;0.87;0.80;;;;;;;7.14;56.59;98561.38;5021722;28;20689;-70
2021/03/27 09:01:32;;;;;;;0.93;0.90;;;;;;;7.09;56.45;98567.03;5019925;28;20211;-67
2021/03/27 09:04:19;;;;;;;1.30;1.23;;;;;;;7.05;57.16;98577.00;5017008;28;20205;-71
2021/03/27 09:06:57;;;;;;;1.17;1.10;;;;;;;7.14;58.11;98580.66;5020656;28;20213;-71
2021/03/27 09:09:49;;;;;;;1.47;1.20;;;;;;;7.08;58.68;98575.91;5017960;28;20250;-70
2021/03/27 09:12:31;;;;;;;1.27;1.17;;;;;;;7.00;58.11;98575.69;5022284;28;20243;-71
2021/03/27 09:15:31;;;;;;;0.90;0.90;;;;;;;6.89;56.77;98590.59;5020533;28;20208;-71
2021/03/27 09:18:26;;;;;;;1.37;1.27;;;;;;;7.00;55.48;98570.41;5016511;28;20205;-70
2021/03/27 09:21:21;;;;;;;1.73;1.63;;;;;;;7.15;53.82;98577.06;5013695;28;20209;-71
2021/03/27 09:23:54;;;;;;;1.80;1.70;;;;;;;7.14;52.79;98593.84;5017504;28;20216;-69
2021/03/27 09:26:37;;;;;;;2.30;1.60;;;;;;;7.33;53.10;98595.78;5022894;28;20491;-71
2021/03/27 09:29:26;;;;;;;1.27;1.17;;;;;;;7.41;49.81;98595.16;5014376;28;20196;-70
2021/03/27 09:32:09;;;;;;;1.27;1.17;;;;;;;7.55;48.59;98601.06;5020550;28;20633;-71
2021/03/27 09:35:00;;;;;;;1.53;1.10;;;;;;;8.05;48.18;98605.63;5017147;28;20404;-71
2021/03/27 09:37:38;;;;;;;1.43;1.30;;;;;;;7.86;46.40;98624.84;5018722;28;20201;-69
2021/03/27 09:40:14;;;;;;;1.60;1.20;;;;;;;7.78;46.95;98620.19;5017196;28;20448;-71
2021/03/27 09:42:54;;;;;;;1.23;1.23;;;;;;;7.60;47.60;98626.09;5027685;28;20253;-68
2021/03/27 09:45:27;;;;;;;1.60;1.50;;;;;;;7.38;47.36;98625.25;5019746;28;20212;-71
2021/03/27 09:48:14;;;;;;;2.63;1.63;;;;;;;7.49;47.90;98626.97;5021113;28;20212;-71
2021/03/27 09:50:50;;;;;;;2.40;1.40;;;;;;;7.41;48.64;98632.06;5017862;28;20204;-70
2021/03/27 09:53:33;;;;;;;1.30;1.20;;;;;;;7.42;48.70;98630.25;5020803;28;20240;-70
2021/03/27 09:56:04;;;;;;;2.30;1.50;;;;;;;7.50;49.20;98635.72;5016425;28;20223;-71
2021/03/27 09:58:40;;;;;;;1.63;1.50;;;;;;;7.38;49.08;98640.22;5019480;28;20619;-69
2021/03/27 10:01:23;;;;;;;1.57;1.47;;;;;;;7.62;49.69;98639.97;5016149;28;20871;-71
2021/03/27 10:04:07;;;;;;;1.60;1.40;;;;;;;7.35;48.60;98672.09;5020073;28;20582;-69
2021/03/27 10:07:14;;;;;;;1.47;1.37;;;;;;;7.20;49.12;98646.06;5018842;28;20606;-69
2021/03/27 10:09:55;;;;;;;1.17;1.17;;;;;;;7.31;48.81;98658.34;5017535;28;20210;-69
2021/03/27 10:12:25;;;;;;;3.10;1.70;;;;;;;7.38;48.39;98646.34;5021128;28;20874;-70
2021/03/27 10:14:54;;;;;;;1.20;1.10;;;;;;;7.30;48.29;98638.22;5019979;28;20235;-69
2021/03/27 10:17:28;;;;;;;1.30;1.20;;;;;;;7.17;48.09;98656.84;5018619;28;20211;-68
2021/03/27 10:20:01;;;;;;;1.07;0.93;;;;;;;7.22;47.38;98641.50;5021522;28;20201;-67
2021/03/27 10:22:36;;;;;;;2.63;1.40;;;;;;;7.16;48.21;98654.31;5018813;28;20247;-69
2021/03/27 10:25:09;;;;;;;1.77;1.43;;;;;;;7.18;47.71;98640.06;5019132;28;20575;-70
2021/03/27 10:27:53;;;;;;;4.33;1.50;;;;;;;7.34;46.42;98644.91;5017897;28;20200;-70
2021/03/27 10:30:28;;;;;;;3.17;1.33;;;;;;;7.92;47.53;98640.97;5016929;28;20208;-68
2021/03/27 10:33:08;;;;;;;2.73;1.47;;;;;;;8.28;47.45;98650.28;5019444;28;20232;-64
2021/03/27 10:35:55;;;;;;;1.23;1.07;;;;;;;8.24;47.31;98653.19;5015947;28;20205;-65
2021/03/27 10:39:02;;;;;;;1.10;1.10;;;;;;;8.48;46.54;98640.63;5012356;28;20215;-67
2021/03/27 10:41:46;;;;;;;1.40;1.27;;;;;;;8.62;46.35;98653.50;4978219;28;20227;-71
2021/03/27 10:44:20;;;;;;;1.73;1.63;;;;;;;8.50;44.30;98655.41;5021398;28;20204;-71
2021/03/27 10:46:50;;;;;;;2.00;1.23;;;;;;;8.54;44.69;98654.16;5020465;28;20214;-70
2021/03/27 10:49:25;;;;;;;1.60;1.50;;;;;;;8.50;44.28;98678.34;5020797;28;20201;-71
2021/03/27 10:52:34;;;;;;;2.87;1.40;;;;;;;8.40;43.89;98665.91;5016333;28;20266;-71
2021/03/27 10:55:31;;;;;;;2.90;1.53;;;;;;;8.42;44.51;98665.78;5015312;28;20803;-71
2021/03/27 10:58:20;;;;;;;1.27;1.17;;;;;;;8.74;44.92;98661.31;5014087;28;20204;-69
2021/03/27 11:00:56;;;;;;;2.23;1.37;;;;;;;8.60;43.39;98660.72;5017775;28;20201;-70
2021/03/27 11:03:50;;;;;;;1.77;1.50;;;;;;;8.47;43.83;98660.94;5017175;28;20220;-70
2021/03/27 11:06:40;;;;;;;1.07;1.07;;;;;;;8.19;44.99;98659.88;5017805;28;20207;-69
2021/03/27 11:09:45;;;;;;;1.57;1.00;;;;;;;8.30;44.09;98662.41;5017226;28;20233;-69
2021/03/27 11:12:35;;;;;;;7.13;2.27;;;;;;;8.25;44.54;98652.22;5016626;28;20224;-69
2021/03/27 11:15:28;;;;;;;1.67;1.50;;;;;;;8.51;44.00;98659.72;5013112;28;20315;-70
2021/03/27 11:18:09;;;;;;;3.07;1.80;;;;;;;8.51;44.20;98677.38;5013316;28;20205;-68
2021/03/27 11:21:00;;;;;;;1.97;1.40;;;;;;;8.43;44.14;98664.81;5014962;28;20208;-70
2021/03/27 11:23:48;;;;;;;1.57;1.30;;;;;;;8.19;44.38;98673.88;5015841;28;20204;-69
2021/03/27 11:26:47;;;;;;;1.60;1.27;;;;;;;8.00;44.34;98672.00;5017189;28;20324;-69
2021/03/27 11:29:28;;;;;;;1.23;1.20;;;;;;;7.78;44.57;98667.69;4991989;28;20407;-70
2021/03/27 11:32:04;;;;;;;1.63;1.30;;;;;;;7.99;43.94;98678.22;5018032;28;20223;-67
2021/03/27 11:34:35;;;;;;;1.83;1.30;;;;;;;8.07;43.73;98696.88;5009722;28;20224;-70
2021/03/27 11:37:06;;;;;;;1.83;1.50;;;;;;;8.06;44.39;98678.56;5012691;28;20262;-70
2021/03/27 11:39:39;;;;;;;2.50;1.57;;;;;;;8.21;44.71;98671.13;5020587;28;20216;-70
2021/03/27 11:42:13;;;;;;;17.60;4.93;;;;;;;7.91;44.85;98681.50;5019726;28;20250;-70
2021/03/27 11:44:55;;;;;;;2.70;1.87;;;;;;;8.11;44.48;98702.75;5016644;28;20213;-70
2021/03/27 11:47:34;;;;;;;4.53;1.40;;;;;;;8.39;42.95;98687.19;5020116;28;20231;-70
2021/03/27 11:50:31;;;;;;;1.60;1.23;;;;;;;9.12;42.99;98684.34;5017029;28;20219;-69
2021/03/27 11:53:09;;;;;;;1.40;1.33;;;;;;;9.16;42.22;98698.09;5012618;28;20712;-68
2021/03/27 11:55:40;;;;;;;1.70;1.60;;;;;;;9.09;41.56;98678.47;5017700;28;20742;-70
2021/03/27 11:58:19;;;;;;;2.57;1.93;;;;;;;9.42;41.91;98668.47;5019053;28;20200;-70
2021/03/27 12:01:01;;;;;;;1.30;1.10;;;;;;;9.83;39.06;98684.16;5017978;28;20295;-71
2021/03/27 12:03:51;;;;;;;1.63;1.53;;;;;;;9.88;39.73;98695.19;5020617;28;20196;-70
2021/03/27 12:06:29;;;;;;;1.53;1.43;;;;;;;10.54;39.44;98679.38;5020176;28;20204;-69
2021/03/27 12:09:10;;;;;;;2.87;1.43;;;;;;;10.88;39.08;98683.22;5020714;28;20204;-69
2021/03/27 12:12:03;;;;;;;14.47;3.47;;;;;;;10.83;39.79;98683.69;5019820;28;20228;-70
2021/03/27 12:14:33;;;;;;;4.57;1.80;;;;;;;10.86;38.37;98686.84;5016628;28;20231;-70
2021/03/27 12:17:12;;;;;;;3.23;1.20;;;;;;;11.16;36.98;98697.28;5017910;28;20247;-70
2021/03/27 12:19:48;;;;;;;1.23;1.00;;;;;;;10.61;39.13;98698.19;5021834;28;20200;-71
2021/03/27 12:22:20;;;;;;;1.23;1.13;;;;;;;9.53;39.46;98699.25;5020810;28;20238;-69
2021/03/27 12:25:35;;;;;;;2.03;1.33;;;;;;;9.20;40.20;98696.03;5022538;28;20208;-68
2021/03/27 12:28:11;;;;;;;0.80;0.80;;;;;;;9.65;39.53;98689.34;5019186;28;20215;-70
2021/03/27 12:30:47;;;;;;;3.50;1.33;;;;;;;10.06;38.65;98689.13;5020008;28;20669;-70
2021/03/27 12:33:18;;;;;;;0.80;0.80;;;;;;;9.87;39.08;98700.59;5021887;28;21256;-70
2021/03/27 12:35:50;;;;;;;1.00;1.00;;;;;;;10.04;38.88;98699.88;5021366;28;20200;-70
2021/03/27 12:38:29;;;;;;;2.43;1.70;;;;;;;9.47;40.06;98686.56;5021804;28;20196;-68
2021/03/27 12:41:04;;;;;;;1.60;1.30;;;;;;;9.72;40.66;98695.75;5021577;28;20576;-69
2021/03/27 12:43:32;;;;;;;2.67;1.10;;;;;;;10.59;38.63;98685.06;5017634;28;20200;-69
2021/03/27 12:46:12;;;;;;;2.57;1.20;;;;;;;11.38;36.89;98689.84;5022172;28;20270;-70
2021/03/27 12:48:51;;;;;;;1.80;1.10;;;;;;;11.21;35.51;98687.06;5020950;28;20212;-70
2021/03/27 12:51:38;;;;;;;5.07;1.00;;;;;;;10.59;36.19;98721.31;5019087;28;20216;-70